Погода Кубриновона 2 недели

Скопье, Македония

23 июля-05 августа
  • 23июля
    Сегодня
    +16°
    +30°
    Практически безоблачно
    ВремяПогодаТемператураВлажностьДавлениеВетер, м/сВероятность осадков
    02:00Небольшая облачность+19°C69 %673 мм1.6 м/с2 %
    05:00Практически безоблачно+17°C71 %673 мм1.5 м/с2 %
    08:00Ясно и безоблачно+21°C57 %674 мм2.2 м/с2 %
    11:00Ясно и безоблачно+26°C46 %676 мм2.1 м/с2 %
    14:00Практически безоблачно+30°C39 %676 мм1.6 м/с2 %
    17:00Практически безоблачно+29°C40 %675 мм1.6 м/с6 %
    20:00Практически безоблачно+26°C49 %674 мм1.2 м/с8 %
    23:00Ясно и безоблачно+21°C61 %674 мм1.5 м/с2 %
  • 24июля
    Среда
    +14°
    +29°
    Небольшая облачность, возможен дождь с грозой
    ВремяПогодаТемператураВлажностьДавлениеВетер, м/сВероятность осадков
    02:00Ясно и безоблачно+18°C68 %673 мм1.5 м/с1 %
    05:00Ясно и безоблачно+17°C70 %672 мм1.4 м/с1 %
    08:00Ясно и безоблачно+21°C54 %673 мм1.4 м/с2 %
    11:00Ясно и безоблачно+25°C45 %674 мм0.5 м/с10 %
    14:00Небольшая облачность, возможен дождь с грозой+28°C46 %673 мм1.9 м/с34 %
    17:00Небольшая облачность, возможен дождь с грозой+24°C59 %672 мм1.7 м/с65 %
    20:00Небольшая облачность+21°C69 %672 мм1.6 м/с38 %
    23:00Практически безоблачно+18°C85 %671 мм1.4 м/с18 %
  • 25июля
    Четверг
    +12°
    +27°
    Практически безоблачно
    ВремяПогодаТемператураВлажностьДавлениеВетер, м/сВероятность осадков
    02:00Ясно и безоблачно+16°C89 %670 мм1.5 м/с11 %
    05:00Ясно и безоблачно+14°C94 %670 мм1.7 м/с9 %
    08:00Ясно и безоблачно+18°C74 %671 мм2.1 м/с11 %
    11:00Ясно и безоблачно+22°C55 %671 мм2.7 м/с31 %
    14:00Практически безоблачно+26°C48 %672 мм2.0 м/с47 %
    17:00Ясно и безоблачно+26°C45 %671 мм1.4 м/с40 %
    20:00Ясно и безоблачно+23°C55 %671 мм1.2 м/с22 %
    23:00Практически безоблачно+18°C57 %671 мм2.2 м/с7 %
  • 26июля
    Пятница
    +11°
    +27°
    Ясно и безоблачно
    ВремяПогодаТемператураВлажностьДавлениеВетер, м/сВероятность осадков
    02:00Ясно и безоблачно+14°C74 %670 мм1.4 м/с3 %
    05:00Ясно и безоблачно+13°C80 %670 мм1.3 м/с4 %
    08:00Ясно и безоблачно+17°C61 %672 мм1.8 м/с2 %
    11:00Ясно и безоблачно+22°C44 %673 мм1.6 м/с4 %
    14:00Ясно и безоблачно+27°C37 %674 мм1.0 м/с8 %
    17:00Ясно и безоблачно+27°C33 %673 мм0.3 м/с3 %
    20:00Ясно и безоблачно+22°C43 %673 мм1.9 м/с2 %
    23:00Ясно и безоблачно+17°C63 %674 мм2.1 м/с2 %
  • 27июля
    Суббота
    +13°
    +30°
    Ясно и безоблачно
    ВремяПогодаТемператураВлажностьДавлениеВетер, м/сВероятность осадков
    02:00Ясно и безоблачно+14°C75 %674 мм1.7 м/с2 %
    05:00Ясно и безоблачно+12°C81 %674 мм1.6 м/с2 %
    08:00Ясно и безоблачно+17°C58 %676 мм1.5 м/с2 %
    11:00Ясно и безоблачно+23°C39 %678 мм1.4 м/с2 %
    14:00Ясно и безоблачно+28°C27 %678 мм1.2 м/с2 %
    17:00Ясно и безоблачно+29°C25 %678 мм1.5 м/с2 %
    20:00Ясно и безоблачно+23°C39 %678 мм1.9 м/с2 %
    23:00Ясно и безоблачно+19°C49 %677 мм1.0 м/с2 %
Мы используем cookies
Соглашаюсь